sensor_id;sensor_type;location;lat;lon;timestamp;P1;durP1;ratioP1;P2;durP2;ratioP2
22622;SDS011;11478;51.094;7.030;2022-07-12T00:02:23;6.20;;;5.60;;
22622;SDS011;11478;51.094;7.030;2022-07-12T00:04:51;5.55;;;5.05;;
22622;SDS011;11478;51.094;7.030;2022-07-12T00:07:18;6.40;;;5.50;;
22622;SDS011;11478;51.094;7.030;2022-07-12T00:09:46;7.43;;;5.95;;
22622;SDS011;11478;51.094;7.030;2022-07-12T00:12:13;7.95;;;6.18;;
22622;SDS011;11478;51.094;7.030;2022-07-12T00:17:10;6.00;;;5.40;;
22622;SDS011;11478;51.094;7.030;2022-07-12T00:19:38;6.57;;;5.47;;
22622;SDS011;11478;51.094;7.030;2022-07-12T00:22:08;6.03;;;5.43;;
22622;SDS011;11478;51.094;7.030;2022-07-12T00:24:39;6.70;;;6.07;;
22622;SDS011;11478;51.094;7.030;2022-07-12T00:27:06;6.40;;;5.88;;
22622;SDS011;11478;51.094;7.030;2022-07-12T00:29:33;6.60;;;5.90;;
22622;SDS011;11478;51.094;7.030;2022-07-12T00:32:01;8.32;;;6.20;;
22622;SDS011;11478;51.094;7.030;2022-07-12T00:34:27;6.25;;;5.65;;
22622;SDS011;11478;51.094;7.030;2022-07-12T00:36:54;6.18;;;5.40;;
22622;SDS011;11478;51.094;7.030;2022-07-12T00:39:20;6.85;;;6.15;;
22622;SDS011;11478;51.094;7.030;2022-07-12T00:41:47;7.22;;;6.47;;
22622;SDS011;11478;51.094;7.030;2022-07-12T00:44:14;6.47;;;5.88;;
22622;SDS011;11478;51.094;7.030;2022-07-12T00:46:42;6.65;;;5.70;;
22622;SDS011;11478;51.094;7.030;2022-07-12T00:49:12;7.00;;;5.70;;
22622;SDS011;11478;51.094;7.030;2022-07-12T00:51:42;6.70;;;6.00;;
22622;SDS011;11478;51.094;7.030;2022-07-12T00:54:09;7.45;;;6.00;;
22622;SDS011;11478;51.094;7.030;2022-07-12T00:56:39;6.63;;;6.03;;
22622;SDS011;11478;51.094;7.030;2022-07-12T00:59:05;6.68;;;6.03;;
22622;SDS011;11478;51.094;7.030;2022-07-12T01:01:33;6.57;;;5.97;;
22622;SDS011;11478;51.094;7.030;2022-07-12T01:04:00;6.35;;;5.13;;
22622;SDS011;11478;51.094;7.030;2022-07-12T01:09:10;6.25;;;5.75;;
22622;SDS011;11478;51.094;7.030;2022-07-12T01:11:38;6.10;;;5.32;;
22622;SDS011;11478;51.094;7.030;2022-07-12T01:14:03;9.30;;;6.10;;
22622;SDS011;11478;51.094;7.030;2022-07-12T01:16:37;6.50;;;5.90;;
22622;SDS011;11478;51.094;7.030;2022-07-12T01:19:04;6.00;;;5.40;;
22622;SDS011;11478;51.094;7.030;2022-07-12T01:21:42;7.80;;;5.80;;
22622;SDS011;11478;51.094;7.030;2022-07-12T01:24:11;6.82;;;5.65;;
22622;SDS011;11478;51.094;7.030;2022-07-12T01:26:38;6.53;;;5.93;;
22622;SDS011;11478;51.094;7.030;2022-07-12T01:29:04;6.35;;;5.72;;
22622;SDS011;11478;51.094;7.030;2022-07-12T01:31:33;7.57;;;6.20;;
22622;SDS011;11478;51.094;7.030;2022-07-12T01:34:01;6.53;;;5.68;;
22622;SDS011;11478;51.094;7.030;2022-07-12T01:36:27;7.00;;;5.13;;
22622;SDS011;11478;51.094;7.030;2022-07-12T01:41:41;5.75;;;5.07;;
22622;SDS011;11478;51.094;7.030;2022-07-12T01:46:38;6.95;;;5.45;;
22622;SDS011;11478;51.094;7.030;2022-07-12T01:49:09;6.45;;;5.70;;
22622;SDS011;11478;51.094;7.030;2022-07-12T01:51:39;6.88;;;5.43;;
22622;SDS011;11478;51.094;7.030;2022-07-12T01:54:06;6.75;;;5.25;;
22622;SDS011;11478;51.094;7.030;2022-07-12T01:56:32;6.20;;;5.60;;
22622;SDS011;11478;51.094;7.030;2022-07-12T01:59:03;6.22;;;5.63;;
22622;SDS011;11478;51.094;7.030;2022-07-12T02:01:29;8.07;;;5.80;;
22622;SDS011;11478;51.094;7.030;2022-07-12T02:04:03;6.22;;;5.72;;
22622;SDS011;11478;51.094;7.030;2022-07-12T02:06:29;7.75;;;5.90;;
22622;SDS011;11478;51.094;7.030;2022-07-12T02:09:04;9.23;;;6.15;;
22622;SDS011;11478;51.094;7.030;2022-07-12T02:11:32;5.78;;;5.25;;
22622;SDS011;11478;51.094;7.030;2022-07-12T02:14:18;9.68;;;5.30;;
22622;SDS011;11478;51.094;7.030;2022-07-12T16:11:27;1.92;;;1.40;;
22622;SDS011;11478;51.094;7.030;2022-07-12T16:13:53;2.17;;;1.40;;
22622;SDS011;11478;51.094;7.030;2022-07-12T16:16:23;1.45;;;1.35;;
22622;SDS011;11478;51.094;7.030;2022-07-12T16:18:49;1.83;;;1.40;;
22622;SDS011;11478;51.094;7.030;2022-07-12T16:21:15;2.60;;;1.50;;
22622;SDS011;11478;51.094;7.030;2022-07-12T16:23:43;2.15;;;1.30;;
22622;SDS011;11478;51.094;7.030;2022-07-12T16:26:09;5.70;;;1.30;;
22622;SDS011;11478;51.094;7.030;2022-07-12T16:28:35;1.52;;;1.35;;
22622;SDS011;11478;51.094;7.030;2022-07-12T16:31:07;1.63;;;1.50;;
22622;SDS011;11478;51.094;7.030;2022-07-12T16:33:34;2.35;;;1.33;;
22622;SDS011;11478;51.094;7.030;2022-07-12T16:38:30;2.85;;;1.48;;
22622;SDS011;11478;51.094;7.030;2022-07-12T16:43:26;3.05;;;1.50;;
22622;SDS011;11478;51.094;7.030;2022-07-12T16:48:24;3.72;;;1.48;;
22622;SDS011;11478;51.094;7.030;2022-07-12T16:50:50;1.70;;;1.60;;
22622;SDS011;11478;51.094;7.030;2022-07-12T16:56:00;2.42;;;1.80;;
22622;SDS011;11478;51.094;7.030;2022-07-12T16:58:27;2.60;;;1.58;;
22622;SDS011;11478;51.094;7.030;2022-07-12T17:00:55;2.03;;;1.83;;
22622;SDS011;11478;51.094;7.030;2022-07-12T17:03:21;4.38;;;1.92;;
22622;SDS011;11478;51.094;7.030;2022-07-12T17:05:47;2.53;;;1.83;;
22622;SDS011;11478;51.094;7.030;2022-07-12T17:08:12;6.03;;;2.05;;
22622;SDS011;11478;51.094;7.030;2022-07-12T17:10:41;3.25;;;2.38;;
22622;SDS011;11478;51.094;7.030;2022-07-12T17:13:07;4.35;;;1.90;;
22622;SDS011;11478;51.094;7.030;2022-07-12T17:15:33;6.55;;;2.40;;
22622;SDS011;11478;51.094;7.030;2022-07-12T17:17:59;3.63;;;2.13;;
22622;SDS011;11478;51.094;7.030;2022-07-12T17:20:25;4.07;;;1.70;;
22622;SDS011;11478;51.094;7.030;2022-07-12T17:22:52;2.08;;;1.88;;
22622;SDS011;11478;51.094;7.030;2022-07-12T17:25:17;2.80;;;2.40;;
22622;SDS011;11478;51.094;7.030;2022-07-12T17:27:44;3.53;;;2.13;;
22622;SDS011;11478;51.094;7.030;2022-07-12T17:30:10;4.88;;;2.42;;
22622;SDS011;11478;51.094;7.030;2022-07-12T17:32:39;6.28;;;2.40;;
22622;SDS011;11478;51.094;7.030;2022-07-12T17:35:12;3.97;;;2.20;;
22622;SDS011;11478;51.094;7.030;2022-07-12T17:37:40;3.90;;;2.67;;
22622;SDS011;11478;51.094;7.030;2022-07-12T17:40:09;3.60;;;2.50;;
22622;SDS011;11478;51.094;7.030;2022-07-12T17:42:36;4.72;;;2.80;;
22622;SDS011;11478;51.094;7.030;2022-07-12T17:45:02;4.15;;;2.72;;
22622;SDS011;11478;51.094;7.030;2022-07-12T17:47:29;7.10;;;2.95;;
22622;SDS011;11478;51.094;7.030;2022-07-12T17:49:56;5.00;;;2.72;;
22622;SDS011;11478;51.094;7.030;2022-07-12T17:52:28;3.70;;;2.50;;
22622;SDS011;11478;51.094;7.030;2022-07-12T17:54:55;4.50;;;2.58;;
22622;SDS011;11478;51.094;7.030;2022-07-12T17:57:27;4.50;;;2.97;;
22622;SDS011;11478;51.094;7.030;2022-07-12T17:59:54;4.63;;;2.33;;
22622;SDS011;11478;51.094;7.030;2022-07-12T18:02:24;4.30;;;2.67;;
22622;SDS011;11478;51.094;7.030;2022-07-12T18:04:50;6.10;;;2.67;;
22622;SDS011;11478;51.094;7.030;2022-07-12T18:07:19;3.00;;;2.60;;
22622;SDS011;11478;51.094;7.030;2022-07-12T18:09:47;7.03;;;2.92;;
22622;SDS011;11478;51.094;7.030;2022-07-12T18:12:13;7.07;;;2.85;;
22622;SDS011;11478;51.094;7.030;2022-07-12T18:17:27;3.70;;;2.80;;
22622;SDS011;11478;51.094;7.030;2022-07-12T18:20:12;4.25;;;2.80;;
22622;SDS011;11478;51.094;7.030;2022-07-12T18:22:38;4.55;;;2.95;;
22622;SDS011;11478;51.094;7.030;2022-07-12T18:25:10;5.13;;;2.80;;
22622;SDS011;11478;51.094;7.030;2022-07-12T18:27:38;3.47;;;2.88;;
22622;SDS011;11478;51.094;7.030;2022-07-12T18:30:04;4.28;;;2.70;;
22622;SDS011;11478;51.094;7.030;2022-07-12T18:32:32;4.82;;;3.08;;
22622;SDS011;11478;51.094;7.030;2022-07-12T18:34:58;5.18;;;2.80;;
22622;SDS011;11478;51.094;7.030;2022-07-12T18:37:24;3.17;;;2.70;;
22622;SDS011;11478;51.094;7.030;2022-07-12T18:39:52;3.25;;;2.65;;
22622;SDS011;11478;51.094;7.030;2022-07-12T18:42:18;3.17;;;2.83;;
22622;SDS011;11478;51.094;7.030;2022-07-12T18:44:46;3.97;;;2.83;;
22622;SDS011;11478;51.094;7.030;2022-07-12T18:47:11;6.38;;;2.85;;
22622;SDS011;11478;51.094;7.030;2022-07-12T18:49:39;5.78;;;2.78;;
22622;SDS011;11478;51.094;7.030;2022-07-12T18:52:05;3.13;;;2.70;;
22622;SDS011;11478;51.094;7.030;2022-07-12T18:54:36;3.63;;;2.67;;
22622;SDS011;11478;51.094;7.030;2022-07-12T18:57:02;3.70;;;2.95;;
22622;SDS011;11478;51.094;7.030;2022-07-12T18:59:33;4.05;;;2.92;;
22622;SDS011;11478;51.094;7.030;2022-07-12T19:02:03;3.85;;;2.83;;
22622;SDS011;11478;51.094;7.030;2022-07-12T19:04:29;5.30;;;2.92;;
22622;SDS011;11478;51.094;7.030;2022-07-12T19:06:55;4.47;;;3.13;;
22622;SDS011;11478;51.094;7.030;2022-07-12T19:09:21;5.35;;;3.15;;
22622;SDS011;11478;51.094;7.030;2022-07-12T19:11:48;7.50;;;2.90;;
22622;SDS011;11478;51.094;7.030;2022-07-12T19:14:14;4.90;;;3.45;;
22622;SDS011;11478;51.094;7.030;2022-07-12T19:16:40;6.60;;;3.47;;
22622;SDS011;11478;51.094;7.030;2022-07-12T19:19:07;3.55;;;2.90;;
22622;SDS011;11478;51.094;7.030;2022-07-12T19:21:33;3.63;;;3.00;;
22622;SDS011;11478;51.094;7.030;2022-07-12T19:23:59;3.85;;;2.90;;
22622;SDS011;11478;51.094;7.030;2022-07-12T19:26:27;7.05;;;3.10;;
22622;SDS011;11478;51.094;7.030;2022-07-12T19:28:54;4.63;;;3.10;;
22622;SDS011;11478;51.094;7.030;2022-07-12T19:31:21;3.60;;;3.00;;
22622;SDS011;11478;51.094;7.030;2022-07-12T19:36:18;6.82;;;3.60;;
22622;SDS011;11478;51.094;7.030;2022-07-12T19:38:50;3.20;;;2.90;;
22622;SDS011;11478;51.094;7.030;2022-07-12T19:41:16;4.43;;;3.55;;
22622;SDS011;11478;51.094;7.030;2022-07-12T19:43:43;4.43;;;3.50;;
22622;SDS011;11478;51.094;7.030;2022-07-12T19:46:09;5.53;;;3.35;;
22622;SDS011;11478;51.094;7.030;2022-07-12T19:48:36;6.18;;;2.90;;
22622;SDS011;11478;51.094;7.030;2022-07-12T19:51:02;4.57;;;3.65;;
22622;SDS011;11478;51.094;7.030;2022-07-12T19:53:31;3.63;;;3.25;;
22622;SDS011;11478;51.094;7.030;2022-07-12T19:55:58;3.72;;;2.95;;
22622;SDS011;11478;51.094;7.030;2022-07-12T19:58:24;6.32;;;3.42;;
22622;SDS011;11478;51.094;7.030;2022-07-12T20:00:50;4.07;;;3.60;;
22622;SDS011;11478;51.094;7.030;2022-07-12T20:03:18;4.15;;;3.65;;
22622;SDS011;11478;51.094;7.030;2022-07-12T20:05:44;4.40;;;3.50;;
22622;SDS011;11478;51.094;7.030;2022-07-12T20:08:11;5.80;;;3.20;;
22622;SDS011;11478;51.094;7.030;2022-07-12T20:10:45;5.28;;;3.20;;
22622;SDS011;11478;51.094;7.030;2022-07-12T20:13:12;3.35;;;3.05;;
22622;SDS011;11478;51.094;7.030;2022-07-12T20:15:38;5.32;;;3.60;;
22622;SDS011;11478;51.094;7.030;2022-07-12T20:18:05;4.30;;;3.50;;
22622;SDS011;11478;51.094;7.030;2022-07-12T20:20:36;4.05;;;3.35;;
22622;SDS011;11478;51.094;7.030;2022-07-12T20:23:05;4.93;;;3.72;;
22622;SDS011;11478;51.094;7.030;2022-07-12T20:25:40;5.38;;;3.40;;
22622;SDS011;11478;51.094;7.030;2022-07-12T20:28:07;5.03;;;3.10;;
22622;SDS011;11478;51.094;7.030;2022-07-12T20:30:35;5.78;;;3.47;;
22622;SDS011;11478;51.094;7.030;2022-07-12T20:33:01;3.85;;;3.50;;
22622;SDS011;11478;51.094;7.030;2022-07-12T20:35:46;6.15;;;3.67;;
22622;SDS011;11478;51.094;7.030;2022-07-12T20:38:13;3.78;;;3.45;;
22622;SDS011;11478;51.094;7.030;2022-07-12T20:40:39;4.43;;;3.80;;
22622;SDS011;11478;51.094;7.030;2022-07-12T20:43:06;4.25;;;3.22;;
22622;SDS011;11478;51.094;7.030;2022-07-12T20:45:36;5.88;;;3.78;;
22622;SDS011;11478;51.094;7.030;2022-07-12T20:48:06;6.07;;;3.85;;
22622;SDS011;11478;51.094;7.030;2022-07-12T20:50:33;4.32;;;3.60;;
22622;SDS011;11478;51.094;7.030;2022-07-12T20:52:59;5.75;;;3.90;;
22622;SDS011;11478;51.094;7.030;2022-07-12T20:55:26;4.90;;;3.80;;
22622;SDS011;11478;51.094;7.030;2022-07-12T20:57:53;5.30;;;3.60;;
22622;SDS011;11478;51.094;7.030;2022-07-12T21:00:20;10.07;;;3.70;;
22622;SDS011;11478;51.094;7.030;2022-07-12T21:02:48;5.55;;;4.00;;
22622;SDS011;11478;51.094;7.030;2022-07-12T21:05:17;4.93;;;3.90;;
22622;SDS011;11478;51.094;7.030;2022-07-12T21:07:44;5.63;;;4.10;;
22622;SDS011;11478;51.094;7.030;2022-07-12T21:10:11;9.13;;;4.03;;
22622;SDS011;11478;51.094;7.030;2022-07-12T21:12:39;6.78;;;3.85;;
22622;SDS011;11478;51.094;7.030;2022-07-12T21:15:06;6.70;;;3.95;;
22622;SDS011;11478;51.094;7.030;2022-07-12T21:17:38;7.90;;;3.63;;
22622;SDS011;11478;51.094;7.030;2022-07-12T21:20:07;4.35;;;3.60;;
22622;SDS011;11478;51.094;7.030;2022-07-12T21:22:34;6.03;;;3.97;;
22622;SDS011;11478;51.094;7.030;2022-07-12T21:25:00;5.20;;;3.83;;
22622;SDS011;11478;51.094;7.030;2022-07-12T21:27:27;4.13;;;3.72;;
22622;SDS011;11478;51.094;7.030;2022-07-12T21:29:54;6.25;;;4.22;;
22622;SDS011;11478;51.094;7.030;2022-07-12T21:32:21;4.45;;;4.05;;
22622;SDS011;11478;51.094;7.030;2022-07-12T21:34:48;4.40;;;4.00;;
22622;SDS011;11478;51.094;7.030;2022-07-12T21:39:46;4.97;;;3.80;;
22622;SDS011;11478;51.094;7.030;2022-07-12T21:42:12;8.02;;;3.92;;
22622;SDS011;11478;51.094;7.030;2022-07-12T21:44:38;5.00;;;4.05;;
22622;SDS011;11478;51.094;7.030;2022-07-12T21:49:38;4.78;;;4.10;;
22622;SDS011;11478;51.094;7.030;2022-07-12T21:52:05;7.72;;;4.30;;
22622;SDS011;11478;51.094;7.030;2022-07-12T21:54:31;5.82;;;4.03;;
22622;SDS011;11478;51.094;7.030;2022-07-12T21:56:58;6.22;;;4.45;;
22622;SDS011;11478;51.094;7.030;2022-07-12T21:59:26;4.35;;;3.65;;
22622;SDS011;11478;51.094;7.030;2022-07-12T22:01:53;4.82;;;4.03;;
22622;SDS011;11478;51.094;7.030;2022-07-12T22:04:19;7.20;;;3.85;;
22622;SDS011;11478;51.094;7.030;2022-07-12T22:09:38;5.53;;;3.80;;
22622;SDS011;11478;51.094;7.030;2022-07-12T22:12:05;5.32;;;4.00;;
22622;SDS011;11478;51.094;7.030;2022-07-12T22:14:32;5.00;;;4.00;;
22622;SDS011;11478;51.094;7.030;2022-07-12T22:16:58;5.30;;;3.67;;
22622;SDS011;11478;51.094;7.030;2022-07-12T22:19:24;6.05;;;3.80;;
22622;SDS011;11478;51.094;7.030;2022-07-12T22:21:51;4.72;;;3.92;;
22622;SDS011;11478;51.094;7.030;2022-07-12T22:24:17;5.03;;;4.15;;
22622;SDS011;11478;51.094;7.030;2022-07-12T22:26:44;5.88;;;3.67;;
22622;SDS011;11478;51.094;7.030;2022-07-12T22:29:12;4.75;;;3.80;;
22622;SDS011;11478;51.094;7.030;2022-07-12T22:31:40;4.55;;;3.58;;
22622;SDS011;11478;51.094;7.030;2022-07-12T22:34:07;4.80;;;3.72;;
22622;SDS011;11478;51.094;7.030;2022-07-12T22:36:33;4.93;;;4.10;;
22622;SDS011;11478;51.094;7.030;2022-07-12T22:38:59;5.15;;;3.97;;
22622;SDS011;11478;51.094;7.030;2022-07-12T22:41:25;4.55;;;4.07;;
22622;SDS011;11478;51.094;7.030;2022-07-12T22:43:54;5.72;;;3.85;;
22622;SDS011;11478;51.094;7.030;2022-07-12T22:46:20;5.35;;;3.80;;
22622;SDS011;11478;51.094;7.030;2022-07-12T22:48:47;5.43;;;4.13;;
22622;SDS011;11478;51.094;7.030;2022-07-12T22:51:14;6.05;;;3.75;;
22622;SDS011;11478;51.094;7.030;2022-07-12T22:54:03;5.75;;;4.10;;
22622;SDS011;11478;51.094;7.030;2022-07-12T22:56:29;7.35;;;4.15;;
22622;SDS011;11478;51.094;7.030;2022-07-12T23:01:28;4.13;;;3.70;;
22622;SDS011;11478;51.094;7.030;2022-07-12T23:03:59;5.18;;;4.18;;
22622;SDS011;11478;51.094;7.030;2022-07-12T23:06:25;7.55;;;4.38;;
22622;SDS011;11478;51.094;7.030;2022-07-12T23:11:24;5.88;;;4.10;;
22622;SDS011;11478;51.094;7.030;2022-07-12T23:13:51;4.90;;;4.18;;
22622;SDS011;11478;51.094;7.030;2022-07-12T23:16:17;5.88;;;4.65;;
22622;SDS011;11478;51.094;7.030;2022-07-12T23:18:59;5.68;;;4.18;;
22622;SDS011;11478;51.094;7.030;2022-07-12T23:21:27;5.63;;;3.97;;
22622;SDS011;11478;51.094;7.030;2022-07-12T23:23:53;5.03;;;4.40;;
22622;SDS011;11478;51.094;7.030;2022-07-12T23:26:20;5.15;;;4.20;;
22622;SDS011;11478;51.094;7.030;2022-07-12T23:28:47;6.03;;;4.22;;
22622;SDS011;11478;51.094;7.030;2022-07-12T23:31:14;5.32;;;4.70;;
22622;SDS011;11478;51.094;7.030;2022-07-12T23:33:40;6.40;;;4.20;;
22622;SDS011;11478;51.094;7.030;2022-07-12T23:36:07;6.45;;;4.53;;
22622;SDS011;11478;51.094;7.030;2022-07-12T23:38:35;5.20;;;4.60;;
22622;SDS011;11478;51.094;7.030;2022-07-12T23:41:02;5.68;;;4.40;;
22622;SDS011;11478;51.094;7.030;2022-07-12T23:43:28;6.72;;;4.88;;
22622;SDS011;11478;51.094;7.030;2022-07-12T23:45:54;6.88;;;4.32;;
22622;SDS011;11478;51.094;7.030;2022-07-12T23:48:20;6.75;;;4.32;;
22622;SDS011;11478;51.094;7.030;2022-07-12T23:50:46;5.40;;;4.50;;
22622;SDS011;11478;51.094;7.030;2022-07-12T23:53:13;6.45;;;3.90;;
22622;SDS011;11478;51.094;7.030;2022-07-12T23:55:39;6.30;;;4.50;;
22622;SDS011;11478;51.094;7.030;2022-07-12T23:58:09;6.18;;;4.40;;
